createdAt,value
2019-02-17T00:00:25.491Z,20.48
2019-02-17T00:02:53.897Z,21.35
2019-02-17T00:05:22.758Z,20.75
2019-02-17T00:07:51.153Z,21.05
2019-02-17T00:10:19.549Z,22.20
2019-02-17T00:12:47.948Z,20.43
2019-02-17T00:15:16.891Z,21.33
2019-02-17T00:17:45.280Z,19.90
2019-02-17T00:20:13.671Z,21.27
2019-02-17T00:22:42.054Z,21.07
2019-02-17T00:25:10.441Z,21.42
2019-02-17T00:27:38.836Z,21.02
2019-02-17T00:30:10.141Z,20.85
2019-02-17T00:32:38.661Z,20.60
2019-02-17T00:35:08.780Z,20.90
2019-02-17T00:37:37.249Z,20.48
2019-02-17T00:40:07.171Z,21.95
2019-02-17T00:42:36.036Z,21.02
2019-02-17T00:45:05.355Z,20.45
2019-02-17T00:47:33.989Z,20.37
2019-02-17T00:50:02.386Z,20.57
2019-02-17T00:52:30.763Z,20.35
2019-02-17T00:54:59.164Z,19.00
2019-02-17T00:57:27.541Z,19.30
2019-02-17T00:59:55.935Z,19.75
2019-02-17T01:02:24.376Z,19.05
2019-02-17T01:04:52.789Z,19.60
2019-02-17T01:07:21.176Z,20.10
2019-02-17T01:09:49.565Z,20.82
2019-02-17T01:12:17.941Z,19.85
2019-02-17T01:14:46.336Z,20.85
2019-02-17T01:17:14.721Z,22.45
2019-02-17T01:19:43.124Z,21.42
2019-02-17T01:22:11.496Z,22.35
2019-02-17T01:24:39.888Z,20.65
2019-02-17T01:27:08.268Z,21.23
2019-02-17T01:29:36.664Z,21.35
2019-02-17T01:32:05.046Z,20.90
2019-02-17T01:34:33.432Z,20.90
2019-02-17T01:37:01.825Z,21.45
2019-02-17T01:39:30.268Z,19.95
2019-02-17T01:41:58.648Z,20.70
2019-02-17T01:44:27.040Z,21.07
2019-02-17T01:46:55.426Z,23.62
2019-02-17T01:49:23.812Z,21.40
2019-02-17T01:51:52.193Z,21.42
2019-02-17T01:54:20.579Z,22.32
2019-02-17T01:56:48.964Z,21.77
2019-02-17T01:59:17.353Z,22.45
2019-02-17T02:01:45.731Z,21.42
2019-02-17T02:04:14.114Z,21.40
2019-02-17T02:06:42.508Z,21.57
2019-02-17T02:09:10.970Z,21.42
2019-02-17T02:11:39.368Z,28.75
2019-02-17T02:14:07.821Z,23.50
2019-02-17T02:16:36.223Z,40.12
2019-02-17T02:19:04.743Z,31.60
2019-02-17T02:21:33.137Z,30.62
2019-02-17T02:24:01.524Z,25.05
2019-02-17T02:26:29.926Z,21.95
2019-02-17T02:28:58.304Z,22.27
2019-02-17T02:31:26.704Z,21.10
2019-02-17T02:33:55.080Z,22.55
2019-02-17T02:36:23.473Z,20.88
2019-02-17T02:38:51.859Z,20.97
2019-02-17T02:41:20.257Z,19.87
2019-02-17T02:43:48.640Z,20.48
2019-02-17T02:46:17.037Z,21.40
2019-02-17T02:48:45.424Z,19.98
2019-02-17T02:51:13.828Z,20.40
2019-02-17T02:53:42.201Z,19.20
2019-02-17T02:56:10.587Z,20.02
2019-02-17T02:58:38.972Z,20.17
2019-02-17T03:01:08.143Z,20.85
2019-02-17T03:03:36.534Z,20.68
2019-02-17T03:06:06.641Z,21.25
2019-02-17T03:08:35.027Z,20.88
2019-02-17T03:11:03.417Z,19.67
2019-02-17T03:13:31.868Z,19.52
2019-02-17T03:16:00.254Z,20.08
2019-02-17T03:18:28.652Z,20.75
2019-02-17T03:20:57.032Z,19.40
2019-02-17T03:23:25.416Z,20.80
2019-02-17T03:25:53.809Z,20.92
2019-02-17T03:28:22.204Z,21.23
2019-02-17T03:30:50.583Z,20.43
2019-02-17T03:33:18.969Z,20.85
2019-02-17T03:35:47.360Z,19.05
2019-02-17T03:38:15.752Z,19.90
2019-02-17T03:40:44.132Z,19.32
2019-02-17T03:43:12.598Z,20.60
2019-02-17T03:45:40.984Z,20.70
2019-02-17T03:48:09.375Z,20.95
2019-02-17T03:50:37.756Z,20.27
2019-02-17T03:53:06.161Z,19.57
2019-02-17T03:55:34.551Z,20.70
2019-02-17T03:58:02.942Z,20.02
2019-02-17T04:00:31.326Z,20.65
2019-02-17T04:02:59.720Z,19.73
2019-02-17T04:05:28.105Z,20.80
2019-02-17T04:07:56.497Z,20.88
2019-02-17T04:10:24.890Z,19.15
2019-02-17T04:12:53.276Z,18.90
2019-02-17T04:15:21.660Z,18.90
2019-02-17T04:17:50.056Z,20.62
2019-02-17T04:20:18.439Z,18.02
2019-02-17T04:22:46.816Z,19.20
2019-02-17T04:25:15.212Z,18.37
2019-02-17T04:27:43.598Z,18.90
2019-02-17T04:30:11.998Z,18.50
2019-02-17T04:32:40.381Z,18.07
2019-02-17T04:35:08.772Z,19.27
2019-02-17T04:37:37.152Z,18.10
2019-02-17T04:40:06.492Z,18.37
2019-02-17T04:42:34.874Z,18.95
2019-02-17T04:45:03.259Z,18.45
2019-02-17T04:47:31.636Z,18.85
2019-02-17T04:50:00.041Z,19.62
2019-02-17T04:52:28.420Z,17.50
2019-02-17T04:54:56.811Z,17.75
2019-02-17T04:57:25.193Z,18.40
2019-02-17T04:59:53.595Z,20.65
2019-02-17T05:02:21.975Z,19.25
2019-02-17T05:04:50.369Z,18.95
2019-02-17T05:07:18.769Z,18.75
2019-02-17T05:09:47.152Z,18.17
2019-02-17T05:12:15.546Z,17.62
2019-02-17T05:14:43.937Z,19.07
2019-02-17T05:17:12.322Z,17.65
2019-02-17T05:19:40.710Z,19.37
2019-02-17T05:22:09.094Z,18.77
2019-02-17T05:24:37.523Z,18.92
2019-02-17T05:27:05.908Z,18.00
2019-02-17T05:29:34.306Z,18.75
2019-02-17T05:32:02.683Z,19.25
2019-02-17T05:34:31.063Z,18.50
2019-02-17T05:36:59.454Z,18.70
2019-02-17T05:39:27.845Z,19.77
2019-02-17T05:41:56.237Z,19.80
2019-02-17T05:44:24.615Z,18.82
2019-02-17T05:46:53.019Z,19.92
2019-02-17T05:49:21.413Z,18.37
2019-02-17T05:51:49.810Z,18.30
2019-02-17T05:54:18.208Z,18.67
2019-02-17T05:56:46.584Z,18.17
2019-02-17T05:59:14.959Z,18.92
2019-02-17T06:01:43.351Z,19.05
2019-02-17T06:04:11.733Z,17.57
2019-02-17T06:06:40.143Z,19.95
2019-02-17T06:09:08.508Z,18.20
2019-02-17T06:11:36.900Z,19.32
2019-02-17T06:14:05.281Z,19.05
2019-02-17T06:16:33.695Z,18.00
2019-02-17T06:19:02.075Z,19.30
2019-02-17T06:21:30.753Z,20.55
2019-02-17T06:23:59.424Z,18.98
2019-02-17T06:26:27.817Z,19.05
2019-02-17T06:28:56.206Z,20.35
2019-02-17T06:31:24.598Z,19.25
2019-02-17T06:33:52.977Z,18.67
2019-02-17T06:36:21.369Z,20.17
2019-02-17T06:38:49.748Z,19.00
2019-02-17T06:41:18.141Z,18.17
2019-02-17T06:43:46.528Z,19.55
2019-02-17T06:46:16.573Z,18.45
2019-02-17T06:48:44.960Z,17.98
2019-02-17T06:51:13.355Z,18.00
2019-02-17T06:53:41.740Z,18.35
2019-02-17T06:56:20.772Z,18.25
2019-02-17T06:58:49.148Z,19.05
2019-02-17T07:01:24.426Z,17.85
2019-02-17T07:03:47.643Z,18.65
2019-02-17T07:06:20.747Z,18.35
2019-02-17T07:08:49.128Z,17.12
2019-02-17T07:11:17.621Z,20.08
2019-02-17T07:13:46.076Z,16.93
2019-02-17T07:16:14.468Z,17.50
2019-02-17T07:18:42.863Z,16.40
2019-02-17T07:21:11.253Z,18.73
2019-02-17T07:23:39.651Z,17.15
2019-02-17T07:26:08.036Z,17.15
2019-02-17T07:28:36.429Z,16.32
2019-02-17T07:31:05.480Z,15.85
2019-02-17T07:33:33.875Z,14.95
2019-02-17T07:36:02.272Z,16.25
2019-02-17T07:38:30.662Z,15.93
2019-02-17T07:40:59.095Z,16.00
2019-02-17T07:43:27.488Z,15.55
2019-02-17T07:45:55.869Z,14.78
2019-02-17T07:48:24.271Z,14.30
2019-02-17T07:50:52.647Z,15.40
2019-02-17T07:53:21.036Z,16.27
2019-02-17T07:55:49.427Z,14.75
2019-02-17T07:58:17.834Z,14.70
2019-02-17T08:00:46.216Z,15.93
2019-02-17T08:03:14.622Z,14.75
2019-02-17T08:05:42.996Z,15.93
2019-02-17T08:08:11.410Z,15.40
2019-02-17T08:10:39.779Z,15.45
2019-02-17T08:13:08.172Z,14.25
2019-02-17T08:15:36.568Z,15.08
2019-02-17T08:18:04.980Z,14.78
2019-02-17T08:20:33.361Z,15.55
2019-02-17T08:23:01.749Z,15.03
2019-02-17T08:25:30.169Z,15.32
2019-02-17T08:27:58.550Z,15.72
2019-02-17T08:30:26.954Z,17.82
2019-02-17T08:32:55.345Z,15.48
2019-02-17T08:35:23.736Z,15.30
2019-02-17T08:37:52.136Z,14.65
2019-02-17T08:40:20.532Z,14.33
2019-02-17T08:42:48.920Z,14.80
2019-02-17T08:45:17.317Z,14.65
2019-02-17T08:47:45.976Z,15.53
2019-02-17T08:50:14.380Z,16.40
2019-02-17T08:52:42.768Z,16.90
2019-02-17T08:55:11.177Z,16.73
2019-02-17T08:57:39.572Z,14.68
2019-02-17T09:00:13.266Z,20.55
2019-02-17T09:02:41.714Z,15.18
2019-02-17T09:05:10.183Z,14.70
2019-02-17T09:07:38.588Z,14.45
2019-02-17T09:10:10.056Z,14.10
2019-02-17T09:12:38.440Z,14.25
2019-02-17T09:15:10.096Z,15.00
2019-02-17T09:17:38.551Z,14.68
2019-02-17T09:20:09.041Z,15.68
2019-02-17T09:22:37.428Z,13.88
2019-02-17T09:25:10.965Z,15.20
2019-02-17T09:27:39.354Z,14.30
2019-02-17T09:30:16.309Z,13.98
2019-02-17T09:32:44.724Z,13.83
2019-02-17T09:35:13.223Z,13.18
2019-02-17T09:37:41.622Z,15.63
2019-02-17T09:40:11.864Z,16.82
2019-02-17T09:42:40.264Z,14.58
2019-02-17T09:45:15.862Z,13.80
2019-02-17T09:47:44.261Z,13.78
2019-02-17T09:50:13.791Z,14.20
2019-02-17T09:52:42.344Z,13.32
2019-02-17T09:55:11.275Z,14.07
2019-02-17T09:57:39.907Z,13.83
2019-02-17T10:00:11.120Z,13.35
2019-02-17T10:02:39.526Z,14.10
2019-02-17T10:05:10.527Z,12.03
2019-02-17T10:07:38.915Z,12.75
2019-02-17T10:10:10.384Z,12.93
2019-02-17T10:12:38.782Z,13.53
2019-02-17T10:15:10.586Z,13.83
2019-02-17T10:17:39.055Z,14.65
2019-02-17T10:20:10.182Z,13.45
2019-02-17T10:22:38.581Z,14.05
2019-02-17T10:25:08.013Z,13.38
2019-02-17T10:27:36.412Z,13.28
2019-02-17T10:30:08.006Z,14.30
2019-02-17T10:32:39.171Z,13.58
2019-02-17T10:35:06.759Z,13.60
2019-02-17T10:37:35.168Z,14.68
2019-02-17T10:40:05.004Z,13.72
2019-02-17T10:42:33.408Z,12.98
2019-02-17T10:45:01.793Z,13.22
2019-02-17T10:47:30.187Z,15.40
2019-02-17T10:49:58.572Z,11.70
2019-02-17T10:52:26.976Z,13.18
2019-02-17T10:54:55.361Z,13.72
2019-02-17T10:57:23.792Z,13.55
2019-02-17T10:59:52.172Z,12.55
2019-02-17T11:02:20.564Z,13.62
2019-02-17T11:04:48.968Z,13.50
2019-02-17T11:07:17.360Z,13.38
2019-02-17T11:09:45.767Z,13.22
2019-02-17T11:12:14.157Z,12.43
2019-02-17T11:14:42.555Z,13.08
2019-02-17T11:17:10.949Z,11.65
2019-02-17T11:19:39.357Z,12.47
2019-02-17T11:22:07.750Z,12.13
2019-02-17T11:24:36.173Z,13.32
2019-02-17T11:27:04.527Z,13.55
2019-02-17T11:29:32.930Z,12.90
2019-02-17T11:32:01.315Z,12.88
2019-02-17T11:34:29.704Z,13.03
2019-02-17T11:36:58.096Z,12.45
2019-02-17T11:39:26.505Z,14.30
2019-02-17T11:41:54.920Z,14.03
2019-02-17T11:44:23.322Z,13.43
2019-02-17T11:46:51.703Z,12.85
2019-02-17T11:49:20.114Z,13.35
2019-02-17T11:51:48.520Z,13.85
2019-02-17T11:54:16.921Z,12.88
2019-02-17T11:56:45.312Z,13.58
2019-02-17T11:59:13.715Z,14.35
2019-02-17T12:01:42.414Z,13.00
2019-02-17T12:04:10.820Z,14.28
2019-02-17T12:06:39.204Z,14.58
2019-02-17T12:09:08.253Z,13.53
2019-02-17T12:11:36.638Z,13.93
2019-02-17T12:14:05.027Z,14.78
2019-02-17T12:16:36.926Z,14.40
2019-02-17T12:19:03.535Z,13.00
2019-02-17T12:21:33.584Z,14.25
2019-02-17T12:24:13.209Z,14.38
2019-02-17T12:26:50.005Z,13.47
2019-02-17T12:29:20.100Z,14.98
2019-02-17T12:31:48.559Z,15.18
2019-02-17T12:34:16.947Z,14.05
2019-02-17T12:36:45.347Z,14.50
2019-02-17T12:39:15.170Z,14.85
2019-02-17T12:41:43.733Z,14.93
2019-02-17T12:44:12.112Z,15.83
2019-02-17T12:46:40.513Z,15.08
2019-02-17T12:49:13.207Z,16.52
2019-02-17T12:51:41.685Z,16.60
2019-02-17T12:54:10.148Z,14.30
2019-02-17T12:56:38.555Z,15.32
2019-02-17T12:59:07.017Z,13.32
2019-02-17T13:01:35.419Z,16.32
2019-02-17T13:04:04.021Z,15.55
2019-02-17T13:06:32.417Z,15.88
2019-02-17T13:09:01.245Z,14.07
2019-02-17T13:11:29.635Z,14.60
2019-02-17T13:13:58.027Z,14.00
2019-02-17T13:16:26.433Z,13.88
2019-02-17T13:18:54.824Z,12.80
2019-02-17T13:21:23.225Z,13.03
2019-02-17T13:23:51.620Z,11.85
2019-02-17T13:26:20.517Z,10.05
2019-02-17T13:28:48.972Z,12.43
2019-02-17T13:31:17.379Z,12.10
2019-02-17T13:33:45.931Z,11.63
2019-02-17T13:36:14.448Z,11.57
2019-02-17T13:38:42.846Z,9.48
2019-02-17T13:41:11.247Z,9.33
2019-02-17T13:43:39.660Z,8.68
2019-02-17T13:46:08.069Z,9.75
2019-02-17T13:48:36.458Z,9.03
2019-02-17T13:51:04.869Z,8.78
2019-02-17T13:53:33.261Z,8.90
2019-02-17T13:56:01.657Z,7.67
2019-02-17T13:58:30.107Z,8.83
2019-02-17T14:00:58.555Z,8.88
2019-02-17T14:03:26.944Z,7.87
2019-02-17T14:05:55.332Z,8.13
2019-02-17T14:08:23.725Z,7.78
2019-02-17T14:10:52.106Z,7.28
2019-02-17T14:13:20.510Z,7.12
2019-02-17T14:15:48.892Z,6.83
2019-02-17T14:18:17.298Z,7.97
2019-02-17T14:20:45.691Z,7.05
2019-02-17T14:23:14.075Z,7.60
2019-02-17T14:25:42.464Z,6.87
2019-02-17T14:28:10.865Z,6.92
2019-02-17T14:30:39.245Z,6.92
2019-02-17T14:33:07.708Z,6.92
2019-02-17T14:35:36.096Z,7.70
2019-02-17T14:38:04.490Z,6.92
2019-02-17T14:40:32.899Z,7.62
2019-02-17T14:43:01.278Z,7.55
2019-02-17T14:45:29.675Z,6.67
2019-02-17T14:47:58.065Z,6.40
2019-02-17T14:50:26.445Z,6.87
2019-02-17T14:52:54.908Z,7.17
2019-02-17T14:55:23.299Z,6.75
2019-02-17T14:57:51.766Z,6.47
2019-02-17T15:00:20.152Z,6.47
2019-02-17T15:02:48.550Z,6.25
2019-02-17T15:05:16.933Z,6.42
2019-02-17T15:07:45.380Z,7.15
2019-02-17T15:10:16.739Z,6.72
2019-02-17T15:12:45.126Z,5.85
2019-02-17T15:15:15.831Z,6.40
2019-02-17T15:17:44.213Z,5.87
2019-02-17T15:20:18.219Z,5.30
2019-02-17T15:22:46.635Z,6.65
2019-02-17T15:25:15.176Z,6.55
2019-02-17T15:27:43.567Z,6.45
2019-02-17T15:30:14.105Z,5.30
2019-02-17T15:35:10.108Z,5.85
2019-02-17T15:37:38.576Z,6.47
2019-02-17T15:40:14.553Z,5.92
2019-02-17T15:42:43.429Z,6.72
2019-02-17T15:45:13.132Z,6.15
2019-02-17T15:47:41.516Z,6.12
2019-02-17T15:50:11.640Z,6.47
2019-02-17T15:52:40.098Z,5.97
2019-02-17T15:55:10.540Z,5.47
2019-02-17T15:57:38.927Z,5.33
2019-02-17T16:00:17.517Z,5.90
2019-02-17T16:02:45.976Z,7.03
2019-02-17T16:05:14.741Z,6.10
2019-02-17T16:07:43.132Z,5.03
2019-02-17T16:10:15.646Z,6.25
2019-02-17T16:12:44.029Z,4.90
2019-02-17T16:15:18.250Z,4.95
2019-02-17T16:17:46.631Z,4.67
2019-02-17T16:20:15.083Z,5.22
2019-02-17T16:22:43.491Z,6.22
2019-02-17T16:25:12.149Z,5.55
2019-02-17T16:27:41.166Z,4.97
2019-02-17T16:30:14.967Z,5.12
2019-02-17T16:32:43.345Z,5.15
2019-02-17T16:35:11.801Z,4.22
2019-02-17T16:37:40.197Z,4.30
2019-02-17T16:40:13.749Z,4.55
2019-02-17T16:42:42.317Z,4.53
2019-02-17T16:45:14.662Z,4.62
2019-02-17T16:47:43.780Z,5.05
2019-02-17T16:50:17.668Z,4.87
2019-02-17T16:52:46.055Z,5.97
2019-02-17T16:55:14.444Z,6.37
2019-02-17T16:57:42.906Z,5.28
2019-02-17T17:00:23.147Z,5.35
2019-02-17T17:02:52.966Z,5.95
2019-02-17T17:05:22.408Z,6.53
2019-02-17T17:07:51.774Z,8.68
2019-02-17T17:10:20.306Z,7.20
2019-02-17T17:12:48.805Z,7.37
2019-02-17T17:15:17.487Z,8.15
2019-02-17T17:17:45.924Z,9.10
2019-02-17T17:20:16.787Z,7.95
2019-02-17T17:22:45.265Z,8.53
2019-02-17T17:25:14.388Z,8.28
2019-02-17T17:27:42.869Z,9.03
2019-02-17T17:30:13.767Z,8.05
2019-02-17T17:32:42.180Z,8.18
2019-02-17T17:35:11.522Z,8.15
2019-02-17T17:37:39.996Z,7.70
2019-02-17T17:40:18.398Z,7.97
2019-02-17T17:42:46.861Z,7.55
2019-02-17T17:45:20.643Z,7.05
2019-02-17T17:47:49.035Z,7.15
2019-02-17T17:50:17.501Z,7.70
2019-02-17T17:52:45.907Z,7.37
2019-02-17T17:55:14.360Z,8.25
2019-02-17T17:57:42.819Z,8.28
2019-02-17T18:00:27.672Z,8.43
2019-02-17T18:02:56.369Z,8.20
2019-02-17T18:05:24.747Z,8.45
2019-02-17T18:07:53.150Z,9.73
2019-02-17T18:10:21.540Z,8.40
2019-02-17T18:12:49.944Z,10.55
2019-02-17T18:15:19.580Z,8.50
2019-02-17T18:17:54.577Z,12.10
2019-02-17T18:20:18.085Z,9.70
2019-02-17T18:22:46.547Z,11.70
2019-02-17T18:25:15.279Z,11.35
2019-02-17T18:27:43.765Z,10.28
2019-02-17T18:30:16.601Z,10.55
2019-02-17T18:32:45.297Z,10.72
2019-02-17T18:35:19.757Z,12.60
2019-02-17T18:37:44.139Z,11.40
2019-02-17T18:40:14.267Z,11.03
2019-02-17T18:42:43.699Z,11.00
2019-02-17T18:45:13.532Z,13.20
2019-02-17T18:47:41.934Z,12.80
2019-02-17T18:50:12.359Z,13.62
2019-02-17T18:52:40.769Z,13.25
2019-02-17T18:55:11.484Z,13.55
2019-02-17T18:57:49.019Z,15.18
2019-02-17T19:00:15.644Z,11.88
2019-02-17T19:02:44.036Z,16.73
2019-02-17T19:05:12.572Z,14.55
2019-02-17T19:07:40.980Z,15.23
2019-02-17T19:10:15.861Z,11.60
2019-02-17T19:12:44.330Z,13.62
2019-02-17T19:15:14.832Z,13.53
2019-02-17T19:17:43.232Z,13.40
2019-02-17T19:20:14.532Z,13.20
2019-02-17T19:22:42.937Z,14.25
2019-02-17T19:25:11.488Z,13.95
2019-02-17T19:27:39.884Z,12.43
2019-02-17T19:30:11.584Z,13.95
2019-02-17T19:32:39.984Z,12.53
2019-02-17T19:35:11.278Z,13.22
2019-02-17T19:37:39.663Z,12.40
2019-02-17T19:40:10.396Z,13.55
2019-02-17T19:42:38.783Z,16.20
2019-02-17T19:45:10.193Z,15.93
2019-02-17T19:47:38.582Z,13.90
2019-02-17T19:50:10.009Z,15.85
2019-02-17T19:52:38.657Z,13.70
2019-02-17T19:55:08.788Z,20.82
2019-02-17T19:57:37.463Z,20.77
2019-02-17T20:00:17.001Z,20.43
2019-02-17T20:02:49.477Z,17.42
2019-02-17T20:05:19.508Z,16.75
2019-02-17T20:07:47.897Z,17.25
2019-02-17T20:10:16.287Z,19.15
2019-02-17T20:12:44.808Z,19.52
2019-02-17T20:15:13.209Z,18.07
2019-02-17T20:17:41.594Z,17.35
2019-02-17T20:20:10.433Z,17.52
2019-02-17T20:22:38.803Z,16.52
2019-02-17T20:25:07.754Z,15.13
2019-02-17T20:27:36.137Z,16.10
2019-02-17T20:30:07.740Z,14.85
2019-02-17T20:32:36.128Z,13.50
2019-02-17T20:35:06.472Z,12.98
2019-02-17T20:37:35.083Z,13.70
2019-02-17T20:40:05.416Z,14.90
2019-02-17T20:42:33.797Z,13.60
2019-02-17T20:45:02.200Z,14.63
2019-02-17T20:47:30.602Z,18.05
2019-02-17T20:49:58.980Z,20.57
2019-02-17T20:52:27.362Z,17.60
2019-02-17T20:54:55.827Z,18.23
2019-02-17T20:57:24.262Z,19.55
2019-02-17T20:59:52.680Z,17.82
2019-02-17T21:02:21.064Z,20.12
2019-02-17T21:04:49.740Z,18.15
2019-02-17T21:07:18.119Z,18.20
2019-02-17T21:09:46.601Z,17.73
2019-02-17T21:12:14.984Z,17.77
2019-02-17T21:14:43.373Z,18.35
2019-02-17T21:17:12.004Z,16.73
2019-02-17T21:19:40.382Z,18.87
2019-02-17T21:22:08.763Z,17.82
2019-02-17T21:24:37.215Z,17.37
2019-02-17T21:27:05.612Z,17.05
2019-02-17T21:29:33.996Z,17.70
2019-02-17T21:32:02.389Z,18.87
2019-02-17T21:34:30.774Z,17.15
2019-02-17T21:36:59.169Z,18.05
2019-02-17T21:39:27.557Z,17.20
2019-02-17T21:41:55.956Z,16.80
2019-02-17T21:44:24.333Z,16.20
2019-02-17T21:46:52.724Z,17.92
2019-02-17T21:49:21.106Z,16.82
2019-02-17T21:51:49.501Z,17.02
2019-02-17T21:54:17.963Z,16.35
2019-02-17T21:56:46.346Z,14.78
2019-02-17T21:59:14.738Z,16.23
2019-02-17T22:01:43.131Z,15.78
2019-02-17T22:04:11.512Z,15.95
2019-02-17T22:06:40.168Z,16.60
2019-02-17T22:09:08.821Z,17.42
2019-02-17T22:11:37.213Z,15.88
2019-02-17T22:14:05.596Z,17.27
2019-02-17T22:16:34.004Z,15.80
2019-02-17T22:19:02.383Z,17.32
2019-02-17T22:21:30.775Z,17.52
2019-02-17T22:23:59.160Z,15.05
2019-02-17T22:26:27.556Z,14.68
2019-02-17T22:28:55.945Z,19.45
2019-02-17T22:31:24.338Z,17.52
2019-02-17T22:33:52.729Z,17.95
2019-02-17T22:36:21.124Z,17.80
2019-02-17T22:38:49.586Z,16.57
2019-02-17T22:41:17.985Z,16.40
2019-02-17T22:43:46.379Z,15.68
2019-02-17T22:46:14.763Z,17.67
2019-02-17T22:48:43.152Z,15.98
2019-02-17T22:51:11.552Z,15.32
2019-02-17T22:53:43.620Z,15.35
2019-02-17T22:56:10.039Z,16.70
2019-02-17T22:58:38.513Z,16.93
2019-02-17T23:01:07.727Z,16.93
2019-02-17T23:03:36.206Z,15.60
2019-02-17T23:06:04.751Z,16.30
2019-02-17T23:08:33.149Z,14.95
2019-02-17T23:11:01.535Z,15.65
2019-02-17T23:13:29.993Z,16.90
2019-02-17T23:15:58.451Z,16.87
2019-02-17T23:18:26.842Z,17.23
2019-02-17T23:20:55.291Z,15.35
2019-02-17T23:23:23.693Z,16.67
2019-02-17T23:25:52.071Z,17.12
2019-02-17T23:28:20.533Z,16.40
2019-02-17T23:30:48.908Z,16.23
2019-02-17T23:33:17.304Z,16.27
2019-02-17T23:35:45.833Z,16.20
2019-02-17T23:38:14.230Z,16.42
2019-02-17T23:40:42.608Z,17.15
2019-02-17T23:43:11.000Z,16.90
2019-02-17T23:45:39.413Z,16.17
2019-02-17T23:48:08.061Z,18.07
2019-02-17T23:50:36.440Z,17.17
2019-02-17T23:53:04.830Z,16.73
2019-02-17T23:55:33.207Z,16.10
2019-02-17T23:58:01.595Z,15.55
